createdAt,value
2023-04-11T00:00:49.345Z,67.61
2023-04-11T00:04:57.384Z,68.01
2023-04-11T00:09:05.798Z,65.59
2023-04-11T00:13:13.980Z,65.51
2023-04-11T00:16:42.706Z,66.22
2023-04-11T00:20:50.889Z,67.17
2023-04-11T00:24:49.255Z,68.19
2023-04-11T00:28:57.460Z,65.38
2023-04-11T00:33:05.825Z,65.22
2023-04-11T00:37:03.815Z,66.03
2023-04-11T00:40:55.776Z,66.93
2023-04-11T00:45:03.924Z,67.93
2023-04-11T00:49:11.725Z,66.00
2023-04-11T00:53:20.929Z,65.26
2023-04-11T00:57:10.216Z,66.22
2023-04-11T01:01:18.379Z,66.32
2023-04-11T01:04:59.415Z,68.07
2023-04-11T01:08:40.023Z,65.68
2023-04-11T01:12:29.018Z,65.73
2023-04-11T01:16:21.338Z,66.27
2023-04-11T01:20:30.867Z,66.90
2023-04-11T01:24:32.094Z,67.76
2023-04-11T01:28:33.808Z,66.01
2023-04-11T01:32:06.338Z,65.62
2023-04-11T01:36:15.512Z,66.33
2023-04-11T01:40:24.668Z,67.42
2023-04-11T01:44:32.785Z,68.39
2023-04-11T01:48:41.169Z,66.56
2023-04-11T01:52:50.773Z,66.63
2023-04-11T01:56:58.851Z,67.45
2023-04-11T02:00:45.220Z,68.52
2023-04-11T02:04:53.415Z,69.78
2023-04-11T02:09:01.607Z,67.35
2023-04-11T02:12:59.152Z,66.89
2023-04-11T02:16:41.686Z,67.04
2023-04-11T02:20:50.806Z,67.99
2023-04-11T02:24:41.910Z,67.85
2023-04-11T02:28:40.268Z,66.30
2023-04-11T02:32:45.437Z,65.81
2023-04-11T02:36:38.192Z,65.59
2023-04-11T02:40:07.266Z,65.31
2023-04-11T02:43:57.297Z,67.92
2023-04-11T02:48:06.577Z,65.68
2023-04-11T02:51:56.877Z,65.35
2023-04-11T02:55:33.254Z,65.52
2023-04-11T02:59:20.739Z,67.01
2023-04-11T03:03:17.589Z,68.05
2023-04-11T03:06:27.075Z,66.07
2023-04-11T03:10:20.626Z,65.74
2023-04-11T03:14:28.694Z,66.24
2023-04-11T03:18:03.015Z,66.79
2023-04-11T03:22:12.200Z,68.30
2023-04-11T03:26:20.545Z,66.44
2023-04-11T03:30:28.656Z,65.81
2023-04-11T03:34:18.410Z,67.20
2023-04-11T03:38:26.259Z,67.93
2023-04-11T03:42:34.372Z,69.27
2023-04-11T03:46:22.616Z,67.22
2023-04-11T03:50:13.594Z,66.55
2023-04-11T03:54:20.335Z,67.48
2023-04-11T03:57:52.014Z,68.69
2023-04-11T04:01:09.966Z,69.83
2023-04-11T04:05:08.021Z,68.21
2023-04-11T04:09:06.000Z,66.56
2023-04-11T04:12:09.963Z,66.86
2023-04-11T04:15:43.014Z,67.82
2023-04-11T04:19:04.450Z,68.86
2023-04-11T04:21:42.035Z,68.06
2023-04-11T04:25:39.315Z,66.52
2023-04-11T04:28:39.868Z,66.62
2023-04-11T04:32:01.757Z,67.47
2023-04-11T04:35:10.622Z,68.10
2023-04-11T04:38:28.590Z,69.02
2023-04-11T04:41:41.689Z,68.19
2023-04-11T04:45:44.757Z,67.27
2023-04-11T04:48:43.243Z,66.88
2023-04-11T04:51:41.752Z,67.38
2023-04-11T04:55:14.746Z,68.32
2023-04-11T04:58:13.932Z,69.22
2023-04-11T05:01:18.158Z,68.14
2023-04-11T05:04:13.553Z,66.66
2023-04-11T05:07:15.756Z,66.28
2023-04-11T05:10:33.044Z,67.00
2023-04-11T05:13:20.758Z,67.96
2023-04-11T05:17:08.882Z,69.11
2023-04-11T05:19:49.373Z,67.64
2023-04-11T05:22:50.408Z,65.91
2023-04-11T05:25:59.050Z,66.11
2023-04-11T05:28:35.955Z,66.60
2023-04-11T05:31:57.137Z,67.41
2023-04-11T05:35:18.376Z,68.25
2023-04-11T05:38:17.815Z,67.01
2023-04-11T05:41:15.758Z,65.22
2023-04-11T05:43:46.112Z,65.15
2023-04-11T05:46:28.392Z,65.52
2023-04-11T05:53:13.964Z,69.71
2023-04-11T05:55:50.188Z,67.75
2023-04-11T05:58:17.664Z,66.25
2023-04-11T06:00:56.368Z,65.51
2023-04-11T06:03:29.671Z,65.40
2023-04-11T06:06:09.790Z,65.86
2023-04-11T06:08:49.474Z,66.24
2023-04-11T06:11:16.663Z,66.83
2023-04-11T06:13:51.004Z,66.17
2023-04-11T06:16:18.196Z,64.27
2023-04-11T06:18:45.424Z,63.72
2023-04-11T06:21:12.473Z,64.08
2023-04-11T06:23:40.755Z,64.25
2023-04-11T06:26:09.738Z,65.00
2023-04-11T06:28:40.191Z,64.94
2023-04-11T06:31:09.781Z,64.84
2023-04-11T06:33:38.459Z,64.35
2023-04-11T06:36:06.353Z,61.49
2023-04-11T06:38:35.055Z,60.40
2023-04-11T06:41:02.082Z,58.70
2023-04-11T06:43:30.633Z,60.23
2023-04-11T06:45:58.298Z,58.05
2023-04-11T06:48:26.457Z,56.30
2023-04-11T06:50:53.616Z,55.96
2023-04-11T06:53:21.539Z,52.26
2023-04-11T06:55:49.791Z,51.67
2023-04-11T06:58:17.053Z,50.85
2023-04-11T07:00:44.251Z,51.86
2023-04-11T07:03:12.540Z,52.39
2023-04-11T07:05:39.766Z,51.34
2023-04-11T07:08:14.923Z,47.81
2023-04-11T07:10:45.066Z,46.80
2023-04-11T07:13:12.189Z,47.17
2023-04-11T07:15:40.514Z,46.57
2023-04-11T07:18:08.948Z,46.77
2023-04-11T07:20:36.504Z,45.60
2023-04-11T07:23:04.422Z,44.94
2023-04-11T07:25:33.707Z,45.30
2023-04-11T07:28:01.020Z,43.40
2023-04-11T07:30:28.635Z,44.35
2023-04-11T07:33:03.280Z,42.84
2023-04-11T07:35:34.652Z,41.37
2023-04-11T07:38:01.989Z,40.04
2023-04-11T07:40:29.517Z,41.51
2023-04-11T07:42:58.559Z,42.11
2023-04-11T07:45:26.136Z,41.70
2023-04-11T07:47:56.215Z,42.32
2023-04-11T07:50:23.294Z,41.17
2023-04-11T07:52:51.388Z,40.82
2023-04-11T07:55:18.724Z,40.13
2023-04-11T07:57:45.990Z,38.77
2023-04-11T08:00:20.472Z,39.61
2023-04-11T08:02:52.881Z,39.28
2023-04-11T08:05:20.251Z,39.54
2023-04-11T08:07:51.511Z,38.50
2023-04-11T08:10:19.999Z,38.46
2023-04-11T08:12:47.293Z,38.74
2023-04-11T08:17:29.297Z,40.19
2023-04-11T08:20:22.988Z,40.59
2023-04-11T08:22:56.169Z,41.33
2023-04-11T08:25:27.130Z,41.80
2023-04-11T08:27:54.923Z,42.37
2023-04-11T08:30:30.516Z,39.96
2023-04-11T08:33:35.290Z,37.26
2023-04-11T08:36:09.951Z,38.09
2023-04-11T08:38:41.874Z,39.06
2023-04-11T08:41:19.010Z,39.15
2023-04-11T08:43:50.356Z,39.57
2023-04-11T08:46:18.524Z,40.34
2023-04-11T08:48:51.220Z,41.21
2023-04-11T08:51:26.832Z,42.24
2023-04-11T08:53:58.192Z,42.90
2023-04-11T08:56:26.925Z,43.05
2023-04-11T08:58:58.031Z,41.56
2023-04-11T09:01:32.657Z,42.53
2023-04-11T09:04:01.307Z,41.85
2023-04-11T09:06:37.091Z,42.35
2023-04-11T09:09:14.958Z,43.16
2023-04-11T09:12:06.012Z,44.17
2023-04-11T09:14:37.946Z,42.50
2023-04-11T09:17:24.690Z,43.56
2023-04-11T09:20:14.047Z,43.36
2023-04-11T09:23:29.686Z,40.74
2023-04-11T09:25:57.044Z,39.15
2023-04-11T09:28:50.709Z,40.91
2023-04-11T09:31:21.805Z,41.96
2023-04-11T09:34:28.890Z,42.08
2023-04-11T09:37:04.441Z,43.42
2023-04-11T09:39:40.801Z,42.67
2023-04-11T09:42:36.598Z,42.65
2023-04-11T09:45:04.544Z,43.91
2023-04-11T09:47:36.785Z,44.60
2023-04-11T09:50:07.320Z,43.01
2023-04-11T09:52:34.904Z,40.64
2023-04-11T09:55:45.111Z,41.02
2023-04-11T09:58:38.120Z,41.05
2023-04-11T10:01:19.166Z,41.16
2023-04-11T10:03:51.165Z,40.80
2023-04-11T10:06:47.130Z,41.19
2023-04-11T10:09:14.426Z,41.32
2023-04-11T10:12:30.050Z,41.63
2023-04-11T10:15:16.545Z,40.95
2023-04-11T10:18:11.653Z,41.19
2023-04-11T10:20:44.921Z,39.90
2023-04-11T10:23:52.371Z,38.39
2023-04-11T10:26:57.836Z,37.97
2023-04-11T10:29:54.583Z,38.41
2023-04-11T10:32:26.925Z,37.59
2023-04-11T10:34:57.753Z,37.52
2023-04-11T10:37:48.350Z,37.11
2023-04-11T10:40:15.713Z,35.36
2023-04-11T10:42:44.858Z,33.34
2023-04-11T10:45:24.645Z,33.65
2023-04-11T10:48:07.660Z,34.88
2023-04-11T10:50:50.713Z,34.19
2023-04-11T10:53:41.941Z,34.63
2023-04-11T10:56:14.630Z,35.42
2023-04-11T10:58:43.372Z,34.97
2023-04-11T11:01:31.778Z,33.85
2023-04-11T11:04:05.119Z,34.32
2023-04-11T11:06:38.054Z,35.13
2023-04-11T11:09:23.711Z,35.81
2023-04-11T11:12:13.935Z,35.99
2023-04-11T11:14:47.216Z,35.69
2023-04-11T11:17:23.807Z,36.09
2023-04-11T11:19:52.433Z,37.91
2023-04-11T11:22:26.177Z,36.31
2023-04-11T11:25:14.809Z,38.17
2023-04-11T11:27:45.567Z,38.72
2023-04-11T11:30:14.414Z,39.48
2023-04-11T11:32:45.340Z,40.02
2023-04-11T11:35:19.107Z,39.82
2023-04-11T11:37:52.614Z,40.34
2023-04-11T11:40:24.625Z,39.97
2023-04-11T11:42:51.916Z,39.74
2023-04-11T11:45:22.718Z,41.47
2023-04-11T11:47:57.511Z,42.41
2023-04-11T11:50:33.850Z,42.53
2023-04-11T11:53:20.281Z,41.96
2023-04-11T11:55:50.527Z,42.55
2023-04-11T11:58:27.452Z,42.42
2023-04-11T12:00:58.127Z,41.28
2023-04-11T12:03:25.647Z,40.78
2023-04-11T12:05:59.760Z,41.09
2023-04-11T12:08:27.296Z,41.48
2023-04-11T12:10:54.602Z,41.69
2023-04-11T12:13:40.156Z,42.03
2023-04-11T12:16:14.210Z,41.46
2023-04-11T12:18:45.202Z,41.68
2023-04-11T12:21:13.065Z,41.46
2023-04-11T12:23:40.289Z,40.94
2023-04-11T12:26:10.511Z,41.63
2023-04-11T12:28:37.949Z,41.73
2023-04-11T12:31:05.644Z,41.18
2023-04-11T12:33:37.228Z,40.11
2023-04-11T12:36:13.338Z,39.44
2023-04-11T12:38:42.848Z,39.49
2023-04-11T12:41:31.009Z,38.97
2023-04-11T12:50:12.886Z,38.81
2023-04-11T12:52:40.740Z,38.53
2023-04-11T12:55:11.213Z,37.78
2023-04-11T12:57:39.948Z,38.24
2023-04-11T13:00:22.967Z,35.53
2023-04-11T13:06:29.214Z,37.52
2023-04-11T13:12:32.719Z,37.31
2023-04-11T13:45:05.203Z,36.64
2023-04-11T13:50:42.863Z,36.38
2023-04-11T13:53:20.742Z,36.44
2023-04-11T13:57:26.681Z,37.64
2023-04-11T13:59:59.238Z,35.54
2023-04-11T14:02:39.074Z,35.89
2023-04-11T14:05:15.716Z,37.61
2023-04-11T14:07:49.630Z,37.93
2023-04-11T14:10:20.349Z,38.35
2023-04-11T14:13:06.828Z,36.82
2023-04-11T14:15:36.839Z,37.82
2023-04-11T14:18:06.605Z,37.89
2023-04-11T14:20:38.252Z,36.47
2023-04-11T14:23:13.508Z,37.34
2023-04-11T14:26:00.804Z,37.09
2023-04-11T14:28:35.004Z,37.13
2023-04-11T14:31:05.698Z,37.70
2023-04-11T14:33:47.956Z,38.47
2023-04-11T14:36:15.776Z,37.88
2023-04-11T14:38:52.170Z,37.97
2023-04-11T14:41:27.163Z,38.10
2023-04-11T14:44:00.643Z,38.29
2023-04-11T14:46:28.499Z,37.98
2023-04-11T14:48:58.881Z,38.19
2023-04-11T14:51:29.036Z,38.08
2023-04-11T14:54:13.168Z,37.53
2023-04-11T14:57:11.220Z,37.79
2023-04-11T14:59:46.398Z,38.32
2023-04-11T15:02:21.634Z,38.25
2023-04-11T15:05:39.358Z,38.55
2023-04-11T15:08:10.417Z,37.77
2023-04-11T15:10:58.612Z,38.11
2023-04-11T15:13:48.423Z,38.20
2023-04-11T15:16:17.938Z,38.46
2023-04-11T15:18:55.789Z,39.08
2023-04-11T15:21:34.012Z,39.37
2023-04-11T15:24:07.905Z,39.26
2023-04-11T15:26:35.076Z,38.81
2023-04-11T15:29:24.388Z,37.98
2023-04-11T15:31:51.735Z,38.38
2023-04-11T15:34:27.974Z,38.80
2023-04-11T15:36:59.794Z,38.54
2023-04-11T15:39:27.258Z,38.03
2023-04-11T15:41:57.375Z,38.95
2023-04-11T15:44:24.632Z,38.76
2023-04-11T15:46:54.178Z,37.34
2023-04-11T15:49:23.891Z,37.93
2023-04-11T15:51:57.500Z,38.87
2023-04-11T15:54:38.725Z,38.40
2023-04-11T15:57:29.376Z,38.12
2023-04-11T15:59:56.852Z,38.53
2023-04-11T16:02:24.631Z,38.75
2023-04-11T16:07:35.004Z,39.71
2023-04-11T16:10:02.867Z,39.61
2023-04-11T16:12:43.580Z,40.79
2023-04-11T16:15:14.684Z,41.21
2023-04-11T16:17:50.428Z,40.81
2023-04-11T16:20:21.320Z,41.76
2023-04-11T16:22:51.329Z,41.76
2023-04-11T16:25:29.766Z,41.86
2023-04-11T16:28:07.450Z,42.27
2023-04-11T16:30:37.031Z,42.01
2023-04-11T16:33:07.506Z,42.36
2023-04-11T16:35:35.607Z,42.97
2023-04-11T16:38:03.504Z,43.08
2023-04-11T16:40:38.944Z,43.65
2023-04-11T16:43:06.495Z,43.85
2023-04-11T16:45:34.790Z,43.75
2023-04-11T16:48:02.302Z,43.91
2023-04-11T16:50:29.725Z,43.82
2023-04-11T16:53:00.632Z,43.93
2023-04-11T16:55:27.968Z,43.90
2023-04-11T16:57:58.104Z,43.83
2023-04-11T17:00:49.421Z,43.62
2023-04-11T17:03:18.230Z,43.82
2023-04-11T17:05:46.023Z,43.83
2023-04-11T17:08:45.747Z,43.96
2023-04-11T17:11:33.245Z,44.00
2023-04-11T17:14:03.344Z,44.04
2023-04-11T17:16:39.981Z,44.31
2023-04-11T17:19:10.560Z,44.20
2023-04-11T17:21:46.673Z,44.14
2023-04-11T17:24:17.562Z,44.53
2023-04-11T17:26:55.949Z,44.74
2023-04-11T17:29:26.408Z,45.04
2023-04-11T17:31:56.106Z,45.82
2023-04-11T17:34:23.986Z,46.11
2023-04-11T17:36:52.705Z,46.62
2023-04-11T17:39:22.970Z,46.69
2023-04-11T17:42:01.439Z,47.35
2023-04-11T17:44:28.932Z,47.31
2023-04-11T17:46:59.320Z,47.29
2023-04-11T17:49:39.378Z,47.53
2023-04-11T17:52:06.393Z,46.96
2023-04-11T17:54:52.912Z,45.93
2023-04-11T17:57:38.708Z,46.14
2023-04-11T18:00:27.206Z,46.26
2023-04-11T18:02:58.800Z,46.09
2023-04-11T18:05:49.890Z,46.58
2023-04-11T18:08:39.217Z,47.03
2023-04-11T18:11:34.096Z,47.64
2023-04-11T18:14:04.653Z,48.10
2023-04-11T18:16:36.310Z,48.70
2023-04-11T18:19:29.521Z,49.00
2023-04-11T18:22:04.787Z,49.24
2023-04-11T18:24:36.369Z,49.72
2023-04-11T18:27:06.538Z,51.83
2023-04-11T18:29:33.583Z,58.43
2023-04-11T18:32:00.828Z,61.01
2023-04-11T18:34:31.225Z,59.90
2023-04-11T18:37:27.156Z,58.65
2023-04-11T18:39:54.310Z,58.68
2023-04-11T18:42:21.701Z,59.44
2023-04-11T18:44:52.322Z,60.78
2023-04-11T18:47:19.941Z,62.44
2023-04-11T18:49:47.183Z,63.86
2023-04-11T18:52:14.276Z,63.37
2023-04-11T18:54:45.234Z,64.05
2023-04-11T18:57:14.786Z,65.13
2023-04-11T19:00:17.529Z,67.32
2023-04-11T19:02:50.927Z,69.19
2023-04-11T19:05:25.585Z,70.78
2023-04-11T19:07:52.964Z,69.38
2023-04-11T19:10:28.446Z,68.91
2023-04-11T19:12:56.941Z,68.88
2023-04-11T19:15:39.536Z,69.25
2023-04-11T19:18:10.643Z,68.80
2023-04-11T19:20:54.589Z,70.64
2023-04-11T19:23:37.114Z,68.47
2023-04-11T19:26:04.992Z,67.52
2023-04-11T19:28:40.078Z,66.67
2023-04-11T19:31:08.710Z,66.96
2023-04-11T19:33:38.922Z,66.17
2023-04-11T19:36:09.627Z,66.91
2023-04-11T19:38:39.775Z,67.84
2023-04-11T19:41:16.378Z,67.86
2023-04-11T19:43:44.416Z,65.80
2023-04-11T19:46:12.577Z,64.99
2023-04-11T19:48:40.301Z,65.39
2023-04-11T19:51:11.588Z,66.40
2023-04-11T19:53:44.394Z,67.38
2023-04-11T19:56:11.908Z,66.76
2023-04-11T19:58:43.577Z,65.97
2023-04-11T20:01:13.895Z,67.03
2023-04-11T20:03:43.389Z,67.63
2023-04-11T20:06:12.543Z,67.01
2023-04-11T20:08:55.212Z,68.55
2023-04-11T20:11:25.898Z,69.52
2023-04-11T20:14:42.634Z,69.32
2023-04-11T20:17:16.033Z,68.36
2023-04-11T20:19:59.421Z,68.10
2023-04-11T20:22:29.956Z,68.94
2023-04-11T20:25:18.425Z,70.05
2023-04-11T20:27:55.103Z,70.89
2023-04-11T20:30:54.002Z,69.47
2023-04-11T20:33:48.147Z,68.12
2023-04-11T20:36:40.481Z,68.17
2023-04-11T20:39:08.228Z,68.60
2023-04-11T20:41:50.014Z,68.89
2023-04-11T20:44:22.229Z,69.45
2023-04-11T20:47:19.807Z,69.06
2023-04-11T20:49:56.170Z,67.34
2023-04-11T20:52:53.908Z,66.54
2023-04-11T20:56:14.877Z,67.29
2023-04-11T20:58:42.820Z,67.24
2023-04-11T21:01:44.522Z,68.49
2023-04-11T21:05:31.611Z,67.42
2023-04-11T21:09:25.519Z,66.60
2023-04-11T21:13:12.532Z,66.67
2023-04-11T21:16:24.650Z,67.03
2023-04-11T21:20:10.453Z,68.20
2023-04-11T21:24:19.598Z,68.77
2023-04-11T21:27:52.439Z,66.99
2023-04-11T21:31:30.508Z,66.64
2023-04-11T21:34:49.919Z,66.88
2023-04-11T21:37:55.478Z,67.46
2023-04-11T21:40:55.804Z,68.16
2023-04-11T21:44:23.711Z,68.70
2023-04-11T21:47:15.241Z,67.77
2023-04-11T21:50:34.515Z,66.78
2023-04-11T21:54:27.795Z,66.93
2023-04-11T21:58:36.031Z,67.87
2023-04-11T22:02:37.352Z,68.37
2023-04-11T22:05:45.689Z,69.47
2023-04-11T22:09:01.327Z,67.35
2023-04-11T22:12:21.278Z,66.41
2023-04-11T22:15:55.733Z,65.76
2023-04-11T22:19:01.232Z,66.58
2023-04-11T22:22:08.249Z,67.25
2023-04-11T22:25:32.173Z,67.35
2023-04-11T22:28:27.693Z,66.67
2023-04-11T22:31:23.790Z,64.90
2023-04-11T22:33:54.579Z,65.12
2023-04-11T22:36:46.778Z,65.56
2023-04-11T22:40:22.001Z,66.00
2023-04-11T22:43:49.746Z,66.98
2023-04-11T22:47:34.352Z,67.94
2023-04-11T22:50:24.160Z,66.52
2023-04-11T22:53:42.111Z,65.54
2023-04-11T22:57:05.249Z,65.47
2023-04-11T23:00:24.191Z,66.20
2023-04-11T23:04:03.429Z,67.15
2023-04-11T23:07:53.759Z,68.03
2023-04-11T23:11:36.408Z,66.08
2023-04-11T23:15:34.680Z,65.41
2023-04-11T23:19:42.758Z,65.68
2023-04-11T23:23:25.095Z,65.70
2023-04-11T23:27:14.416Z,66.85
2023-04-11T23:30:29.925Z,64.67
2023-04-11T23:34:30.693Z,63.79
2023-04-11T23:38:14.086Z,64.26
2023-04-11T23:42:15.006Z,64.99
2023-04-11T23:46:04.860Z,66.04
2023-04-11T23:50:15.001Z,66.83
2023-04-11T23:54:24.050Z,64.44
2023-04-11T23:58:07.590Z,63.89
